createdAt,value
2023-04-16T00:02:03.882Z,10.71
2023-04-16T00:04:31.508Z,10.76
2023-04-16T00:06:58.615Z,10.78
2023-04-16T00:09:25.675Z,10.84
2023-04-16T00:11:52.785Z,10.77
2023-04-16T00:14:19.885Z,10.82
2023-04-16T00:16:47.094Z,10.83
2023-04-16T00:19:14.238Z,10.87
2023-04-16T00:21:41.315Z,10.84
2023-04-16T00:24:08.460Z,10.76
2023-04-16T00:26:35.554Z,10.68
2023-04-16T00:29:02.672Z,10.77
2023-04-16T00:31:30.787Z,10.69
2023-04-16T00:33:58.120Z,10.68
2023-04-16T00:36:25.681Z,10.67
2023-04-16T00:38:53.061Z,10.64
2023-04-16T00:41:20.163Z,10.63
2023-04-16T00:43:47.276Z,10.43
2023-04-16T00:46:15.948Z,10.44
2023-04-16T00:48:44.130Z,10.47
2023-04-16T00:51:11.590Z,10.42
2023-04-16T00:53:38.853Z,10.45
2023-04-16T00:56:06.858Z,10.45
2023-04-16T00:58:35.026Z,10.39
2023-04-16T01:01:02.394Z,10.42
2023-04-16T01:03:35.001Z,10.51
2023-04-16T01:06:02.522Z,10.50
2023-04-16T01:08:29.704Z,10.51
2023-04-16T01:10:56.841Z,10.64
2023-04-16T01:13:23.905Z,10.57
2023-04-16T01:15:51.499Z,10.51
2023-04-16T01:18:20.122Z,10.50
2023-04-16T01:20:50.246Z,10.45
2023-04-16T01:23:20.724Z,10.56
2023-04-16T01:25:47.923Z,10.43
2023-04-16T01:28:15.202Z,10.43
2023-04-16T01:30:43.073Z,10.27
2023-04-16T01:33:19.081Z,10.28
2023-04-16T01:35:46.248Z,10.24
2023-04-16T01:38:15.940Z,10.25
2023-04-16T01:40:43.015Z,10.14
2023-04-16T01:43:10.402Z,10.29
2023-04-16T01:45:37.595Z,10.25
2023-04-16T01:48:04.807Z,10.06
2023-04-16T01:50:32.014Z,9.95
2023-04-16T01:52:59.050Z,9.94
2023-04-16T01:55:26.889Z,9.97
2023-04-16T01:57:53.986Z,10.00
2023-04-16T02:00:25.566Z,10.04
2023-04-16T02:02:53.733Z,10.03
2023-04-16T02:05:26.575Z,10.05
2023-04-16T02:07:53.615Z,9.89
2023-04-16T02:10:20.775Z,10.01
2023-04-16T02:12:48.043Z,9.86
2023-04-16T02:15:16.334Z,9.73
2023-04-16T02:17:43.611Z,9.80
2023-04-16T02:20:11.374Z,9.77
2023-04-16T02:22:52.222Z,9.92
2023-04-16T02:25:22.332Z,10.02
2023-04-16T02:27:50.181Z,10.21
2023-04-16T02:30:33.882Z,10.04
2023-04-16T02:33:03.722Z,9.84
2023-04-16T02:35:34.706Z,9.86
2023-04-16T02:38:02.330Z,9.88
2023-04-16T02:40:29.909Z,9.77
2023-04-16T02:42:57.258Z,9.89
2023-04-16T02:45:25.012Z,9.87
2023-04-16T02:47:52.223Z,9.80
2023-04-16T02:50:19.310Z,9.81
2023-04-16T02:52:46.457Z,9.79
2023-04-16T02:55:13.627Z,9.79
2023-04-16T02:57:42.449Z,9.69
2023-04-16T03:00:10.080Z,9.74
2023-04-16T03:02:37.323Z,9.65
2023-04-16T03:05:04.793Z,9.62
2023-04-16T03:07:31.955Z,9.69
2023-04-16T03:09:59.080Z,9.79
2023-04-16T03:12:26.165Z,9.84
2023-04-16T03:14:53.281Z,9.76
2023-04-16T03:17:20.544Z,9.73
2023-04-16T03:19:47.693Z,9.71
2023-04-16T03:22:14.835Z,9.65
2023-04-16T03:24:42.109Z,9.53
2023-04-16T03:27:09.211Z,9.46
2023-04-16T03:29:38.526Z,9.38
2023-04-16T03:32:08.179Z,9.38
2023-04-16T03:34:36.835Z,9.35
2023-04-16T03:37:06.168Z,9.26
2023-04-16T03:39:34.641Z,9.32
2023-04-16T03:42:02.379Z,9.37
2023-04-16T03:44:29.717Z,9.34
2023-04-16T03:46:56.854Z,9.17
2023-04-16T03:49:24.141Z,9.05
2023-04-16T03:51:51.861Z,8.82
2023-04-16T03:54:20.182Z,9.03
2023-04-16T03:56:54.156Z,8.84
2023-04-16T03:59:21.264Z,8.78
2023-04-16T04:01:48.353Z,8.70
2023-04-16T04:04:15.698Z,8.76
2023-04-16T04:06:44.807Z,8.63
2023-04-16T04:09:12.261Z,8.62
2023-04-16T04:11:39.381Z,8.66
2023-04-16T04:14:06.493Z,8.68
2023-04-16T04:16:34.458Z,8.70
2023-04-16T04:19:01.758Z,8.60
2023-04-16T04:21:29.183Z,8.36
2023-04-16T04:23:56.362Z,8.24
2023-04-16T04:26:23.853Z,8.40
2023-04-16T04:28:51.237Z,8.47
2023-04-16T04:31:19.077Z,8.50
2023-04-16T04:33:46.384Z,8.65
2023-04-16T04:36:13.560Z,8.70
2023-04-16T04:38:40.588Z,8.78
2023-04-16T04:41:07.654Z,8.76
2023-04-16T04:43:37.392Z,8.64
2023-04-16T04:46:04.737Z,8.81
2023-04-16T04:48:32.519Z,9.00
2023-04-16T04:51:00.159Z,8.92
2023-04-16T04:53:27.228Z,8.83
2023-04-16T04:55:57.495Z,8.87
2023-04-16T04:58:33.181Z,8.87
2023-04-16T05:01:00.362Z,8.90
2023-04-16T05:03:27.513Z,9.04
2023-04-16T05:05:54.578Z,8.89
2023-04-16T05:08:21.753Z,8.97
2023-04-16T05:10:48.872Z,9.15
2023-04-16T05:13:16.010Z,9.17
2023-04-16T05:15:43.198Z,9.29
2023-04-16T05:18:10.316Z,9.18
2023-04-16T05:20:37.998Z,9.18
2023-04-16T05:23:05.082Z,9.19
2023-04-16T05:25:32.164Z,9.29
2023-04-16T05:27:59.271Z,9.31
2023-04-16T05:30:26.358Z,9.44
2023-04-16T05:32:53.382Z,9.58
2023-04-16T05:35:20.425Z,9.73
2023-04-16T05:37:47.529Z,9.88
2023-04-16T05:40:14.693Z,9.89
2023-04-16T05:42:41.808Z,10.00
2023-04-16T05:45:09.150Z,9.96
2023-04-16T05:47:36.350Z,9.97
2023-04-16T05:50:03.482Z,10.12
2023-04-16T05:52:30.634Z,10.31
2023-04-16T05:55:01.420Z,10.53
2023-04-16T05:57:29.241Z,10.73
2023-04-16T05:59:56.352Z,10.66
2023-04-16T06:02:23.546Z,10.79
2023-04-16T06:04:50.812Z,10.82
2023-04-16T06:07:17.950Z,10.75
2023-04-16T06:09:45.028Z,10.75
2023-04-16T06:12:12.135Z,10.77
2023-04-16T06:14:39.199Z,10.91
2023-04-16T06:17:06.250Z,10.92
2023-04-16T06:19:33.277Z,10.83
2023-04-16T06:22:00.429Z,10.79
2023-04-16T06:24:27.565Z,10.59
2023-04-16T06:26:54.721Z,10.77
2023-04-16T06:29:27.933Z,10.67
2023-04-16T06:32:00.803Z,10.84
2023-04-16T06:34:28.220Z,10.77
2023-04-16T06:36:55.452Z,11.02
2023-04-16T06:39:22.514Z,11.31
2023-04-16T06:41:49.625Z,11.64
2023-04-16T06:44:18.075Z,11.80
2023-04-16T06:46:45.272Z,12.40
2023-04-16T06:49:12.446Z,12.70
2023-04-16T06:51:39.527Z,13.64
2023-04-16T06:54:06.687Z,14.46
2023-04-16T06:56:33.882Z,15.63
2023-04-16T06:59:00.984Z,16.47
2023-04-16T07:01:28.482Z,17.41
2023-04-16T07:03:55.876Z,17.21
2023-04-16T07:06:23.092Z,16.21
2023-04-16T07:08:50.175Z,15.72
2023-04-16T07:11:19.035Z,15.44
2023-04-16T07:13:46.406Z,15.52
2023-04-16T07:16:13.931Z,15.95
2023-04-16T07:18:41.184Z,16.27
2023-04-16T07:21:08.277Z,16.29
2023-04-16T07:23:35.407Z,16.45
2023-04-16T07:26:02.473Z,16.72
2023-04-16T07:28:29.522Z,16.46
2023-04-16T07:30:56.740Z,16.31
2023-04-16T07:33:24.249Z,15.88
2023-04-16T07:35:51.569Z,16.61
2023-04-16T07:38:18.661Z,17.14
2023-04-16T07:40:46.037Z,17.33
2023-04-16T07:43:13.965Z,17.64
2023-04-16T07:45:41.558Z,17.52
2023-04-16T07:48:08.711Z,18.11
2023-04-16T07:50:36.403Z,18.20
2023-04-16T07:53:03.712Z,18.27
2023-04-16T07:55:30.731Z,18.28
2023-04-16T07:57:57.820Z,18.43
2023-04-16T08:00:24.894Z,18.51
2023-04-16T08:02:52.318Z,18.95
2023-04-16T08:05:19.652Z,18.81
2023-04-16T08:07:47.047Z,19.04
2023-04-16T08:10:14.116Z,19.55
2023-04-16T08:12:41.400Z,20.05
2023-04-16T08:15:08.709Z,19.97
2023-04-16T08:17:37.562Z,20.20
2023-04-16T08:20:05.209Z,19.72
2023-04-16T08:22:32.817Z,19.82
2023-04-16T08:24:59.962Z,20.17
2023-04-16T08:27:27.062Z,20.25
2023-04-16T08:29:54.135Z,20.32
2023-04-16T08:32:21.351Z,20.63
2023-04-16T08:34:48.593Z,19.82
2023-04-16T08:37:15.749Z,21.08
2023-04-16T08:39:42.868Z,21.11
2023-04-16T08:42:14.169Z,21.54
2023-04-16T08:44:43.713Z,21.80
2023-04-16T08:47:12.525Z,21.84
2023-04-16T08:49:43.923Z,21.86
2023-04-16T08:52:14.736Z,22.20
2023-04-16T08:55:01.695Z,22.23
2023-04-16T08:57:30.858Z,22.21
2023-04-16T08:59:58.229Z,22.41
2023-04-16T09:02:26.336Z,22.25
2023-04-16T09:04:55.489Z,23.02
2023-04-16T09:07:24.001Z,22.57
2023-04-16T09:09:52.118Z,22.31
2023-04-16T09:12:19.293Z,22.22
2023-04-16T09:14:49.438Z,22.48
2023-04-16T09:17:16.931Z,22.67
2023-04-16T09:19:44.542Z,23.20
2023-04-16T09:22:12.040Z,23.16
2023-04-16T09:24:39.231Z,23.38
2023-04-16T09:27:07.729Z,23.59
2023-04-16T09:29:38.329Z,23.56
2023-04-16T09:32:06.594Z,23.50
2023-04-16T09:34:34.437Z,23.26
2023-04-16T09:37:14.313Z,22.73
2023-04-16T09:39:42.283Z,23.27
2023-04-16T09:42:09.549Z,23.74
2023-04-16T09:44:37.638Z,22.90
2023-04-16T09:47:08.454Z,22.97
2023-04-16T09:49:40.740Z,23.23
2023-04-16T09:52:17.861Z,23.20
2023-04-16T09:54:48.597Z,22.73
2023-04-16T09:57:20.722Z,23.12
2023-04-16T09:59:48.372Z,23.27
2023-04-16T10:02:16.540Z,22.36
2023-04-16T10:04:47.982Z,22.84
2023-04-16T10:07:15.306Z,22.44
2023-04-16T10:09:42.732Z,22.60
2023-04-16T10:12:10.616Z,22.91
2023-04-16T10:14:37.640Z,23.10
2023-04-16T10:17:06.260Z,23.34
2023-04-16T10:19:33.825Z,23.06
2023-04-16T10:22:01.561Z,23.23
2023-04-16T10:24:29.863Z,23.28
2023-04-16T10:26:57.094Z,23.42
2023-04-16T10:29:25.376Z,23.36
2023-04-16T10:31:53.121Z,22.93
2023-04-16T10:34:21.289Z,23.19
2023-04-16T10:36:49.636Z,22.92
2023-04-16T10:39:18.424Z,23.66
2023-04-16T10:41:45.642Z,23.63
2023-04-16T10:44:12.913Z,23.88
2023-04-16T10:46:41.471Z,23.42
2023-04-16T10:49:15.807Z,23.19
2023-04-16T10:51:43.035Z,23.79
2023-04-16T10:54:12.562Z,23.77
2023-04-16T10:56:40.281Z,23.44
2023-04-16T10:59:07.929Z,22.85
2023-04-16T11:01:42.404Z,23.12
2023-04-16T11:04:22.072Z,22.62
2023-04-16T11:07:18.735Z,22.35
2023-04-16T11:09:55.090Z,22.82
2023-04-16T11:12:23.776Z,23.30
2023-04-16T11:14:55.155Z,22.72
2023-04-16T11:17:22.428Z,22.48
2023-04-16T11:19:50.627Z,22.62
2023-04-16T11:22:20.841Z,22.82
2023-04-16T11:24:47.998Z,22.10
2023-04-16T11:27:16.105Z,22.64
2023-04-16T11:29:45.061Z,22.41
2023-04-16T11:32:20.671Z,22.18
2023-04-16T11:34:47.794Z,22.63
2023-04-16T11:37:14.904Z,22.79
2023-04-16T11:39:48.706Z,22.49
2023-04-16T11:42:19.521Z,22.63
2023-04-16T11:44:46.646Z,22.93
2023-04-16T11:47:13.794Z,22.89
2023-04-16T11:49:41.058Z,23.01
2023-04-16T11:52:08.200Z,22.94
2023-04-16T11:54:36.677Z,22.78
2023-04-16T11:57:04.982Z,22.64
2023-04-16T11:59:33.248Z,21.84
2023-04-16T12:02:00.492Z,22.48
2023-04-16T12:04:27.914Z,22.45
2023-04-16T12:07:24.407Z,22.32
2023-04-16T12:09:51.465Z,22.48
2023-04-16T12:12:25.828Z,22.82
2023-04-16T12:14:53.192Z,22.77
2023-04-16T12:17:20.747Z,22.65
2023-04-16T12:19:48.536Z,22.94
2023-04-16T12:22:15.954Z,23.06
2023-04-16T12:24:42.998Z,22.61
2023-04-16T12:27:10.181Z,23.07
2023-04-16T12:29:38.763Z,21.82
2023-04-16T12:32:20.672Z,22.09
2023-04-16T12:34:51.639Z,22.48
2023-04-16T12:37:18.669Z,23.06
2023-04-16T12:39:47.930Z,22.71
2023-04-16T12:42:15.296Z,20.60
2023-04-16T12:44:42.339Z,21.03
2023-04-16T12:47:09.520Z,21.50
2023-04-16T12:49:37.351Z,22.10
2023-04-16T12:52:04.536Z,22.14
2023-04-16T12:54:32.049Z,22.49
2023-04-16T12:56:59.101Z,22.69
2023-04-16T12:59:26.168Z,22.46
2023-04-16T13:01:53.355Z,22.37
2023-04-16T13:04:21.153Z,22.53
2023-04-16T13:06:49.740Z,22.63
2023-04-16T13:09:18.044Z,21.71
2023-04-16T13:11:45.055Z,21.31
2023-04-16T13:14:12.268Z,21.60
2023-04-16T13:16:39.292Z,21.88
2023-04-16T13:19:06.435Z,22.19
2023-04-16T13:21:33.718Z,22.16
2023-04-16T13:24:00.908Z,22.29
2023-04-16T13:26:28.093Z,22.19
2023-04-16T13:28:55.205Z,22.54
2023-04-16T13:31:22.552Z,22.01
2023-04-16T13:33:50.265Z,22.56
2023-04-16T13:36:17.417Z,22.81
2023-04-16T13:38:44.520Z,22.74
2023-04-16T13:41:11.650Z,22.74
2023-04-16T13:43:38.737Z,22.79
2023-04-16T13:46:06.008Z,22.88
2023-04-16T13:48:33.236Z,22.95
2023-04-16T13:51:00.448Z,21.95
2023-04-16T13:53:27.547Z,21.79
2023-04-16T13:55:54.669Z,21.84
2023-04-16T13:58:21.867Z,21.63
2023-04-16T14:00:49.043Z,21.10
2023-04-16T14:03:16.400Z,20.89
2023-04-16T14:05:43.576Z,21.00
2023-04-16T14:08:11.008Z,21.15
2023-04-16T14:10:38.143Z,21.26
2023-04-16T14:13:05.283Z,20.80
2023-04-16T14:15:32.441Z,20.61
2023-04-16T14:17:59.595Z,20.14
2023-04-16T14:20:26.687Z,20.13
2023-04-16T14:22:53.819Z,20.09
2023-04-16T14:25:20.973Z,19.94
2023-04-16T14:27:48.077Z,19.97
2023-04-16T14:30:15.399Z,19.76
2023-04-16T14:32:42.644Z,19.66
2023-04-16T14:35:10.260Z,19.45
2023-04-16T14:37:38.367Z,19.34
2023-04-16T14:40:08.678Z,19.39
2023-04-16T14:42:39.493Z,19.62
2023-04-16T14:45:06.981Z,19.50
2023-04-16T14:47:34.798Z,19.51
2023-04-16T14:50:02.505Z,19.41
2023-04-16T14:52:31.245Z,19.28
2023-04-16T14:54:58.446Z,19.32
2023-04-16T14:57:25.776Z,19.36
2023-04-16T14:59:52.876Z,19.35
2023-04-16T15:02:20.109Z,19.11
2023-04-16T15:04:47.262Z,19.17
2023-04-16T15:07:14.345Z,18.83
2023-04-16T15:09:41.436Z,18.98
2023-04-16T15:12:09.190Z,19.42
2023-04-16T15:14:36.333Z,19.67
2023-04-16T15:17:03.557Z,19.68
2023-04-16T15:19:30.951Z,19.49
2023-04-16T15:21:58.151Z,19.34
2023-04-16T15:24:25.458Z,19.19
2023-04-16T15:26:52.524Z,19.11
2023-04-16T15:29:19.536Z,19.25
2023-04-16T15:31:47.500Z,19.36
2023-04-16T15:34:14.706Z,19.41
2023-04-16T15:36:41.919Z,19.47
2023-04-16T15:39:09.791Z,19.50
2023-04-16T15:41:47.206Z,19.46
2023-04-16T15:44:26.652Z,19.08
2023-04-16T15:46:53.694Z,18.86
2023-04-16T15:49:20.892Z,18.63
2023-04-16T15:51:48.055Z,18.63
2023-04-16T15:54:15.089Z,18.75
2023-04-16T15:56:42.175Z,18.42
2023-04-16T15:59:09.573Z,18.52
2023-04-16T16:01:39.669Z,18.46
2023-04-16T16:04:07.448Z,18.58
2023-04-16T16:06:35.038Z,18.46
2023-04-16T16:09:02.170Z,18.63
2023-04-16T16:11:29.266Z,18.41
2023-04-16T16:13:56.349Z,18.37
2023-04-16T16:16:23.505Z,18.11
2023-04-16T16:18:50.644Z,17.89
2023-04-16T16:21:17.662Z,17.56
2023-04-16T16:23:44.777Z,17.66
2023-04-16T16:26:12.311Z,17.72
2023-04-16T16:28:39.505Z,17.50
2023-04-16T16:31:07.227Z,17.35
2023-04-16T16:33:34.416Z,17.59
2023-04-16T16:36:01.444Z,17.66
2023-04-16T16:38:28.638Z,17.51
2023-04-16T16:40:55.680Z,17.52
2023-04-16T16:43:23.071Z,17.41
2023-04-16T16:45:50.109Z,17.47
2023-04-16T16:48:17.280Z,17.40
2023-04-16T16:50:44.449Z,17.46
2023-04-16T16:53:11.621Z,17.58
2023-04-16T16:55:38.783Z,17.46
2023-04-16T16:58:06.232Z,17.41
2023-04-16T17:00:33.383Z,16.98
2023-04-16T17:03:00.828Z,17.00
2023-04-16T17:05:28.121Z,17.04
2023-04-16T17:07:55.200Z,16.98
2023-04-16T17:10:22.456Z,16.56
2023-04-16T17:12:49.854Z,16.43
2023-04-16T17:15:19.156Z,16.36
2023-04-16T17:17:47.820Z,16.07
2023-04-16T17:20:15.688Z,15.88
2023-04-16T17:22:43.020Z,15.84
2023-04-16T17:25:10.298Z,15.77
2023-04-16T17:27:37.409Z,15.69
2023-04-16T17:30:05.761Z,15.67
2023-04-16T17:32:33.002Z,15.60
2023-04-16T17:35:01.144Z,15.60
2023-04-16T17:37:28.640Z,15.58
2023-04-16T17:39:56.001Z,15.58
2023-04-16T17:42:26.289Z,15.58
2023-04-16T17:44:53.457Z,15.48
2023-04-16T17:47:20.914Z,15.48
2023-04-16T17:49:48.062Z,15.36
2023-04-16T17:52:15.247Z,15.35
2023-04-16T17:54:42.295Z,15.31
2023-04-16T17:57:09.314Z,15.37
2023-04-16T17:59:36.336Z,15.29
2023-04-16T18:02:03.675Z,15.19
2023-04-16T18:04:31.241Z,15.16
2023-04-16T18:06:58.376Z,15.09
2023-04-16T18:09:26.156Z,15.06
2023-04-16T18:11:53.706Z,15.00
2023-04-16T18:14:21.478Z,14.91
2023-04-16T18:16:49.179Z,14.96
2023-04-16T18:19:16.599Z,14.79
2023-04-16T18:21:43.706Z,14.79
2023-04-16T18:24:11.256Z,14.82
2023-04-16T18:26:40.810Z,14.74
2023-04-16T18:29:09.124Z,14.77
2023-04-16T18:31:36.427Z,14.69
2023-04-16T18:34:03.610Z,14.63
2023-04-16T18:36:31.174Z,14.55
2023-04-16T18:39:02.105Z,14.49
2023-04-16T18:41:30.765Z,14.48
2023-04-16T18:43:58.021Z,14.54
2023-04-16T18:46:25.469Z,14.33
2023-04-16T18:48:52.684Z,14.23
2023-04-16T18:51:19.733Z,14.36
2023-04-16T18:53:46.852Z,14.31
2023-04-16T18:56:13.887Z,14.25
2023-04-16T18:58:40.961Z,14.27
2023-04-16T19:01:11.301Z,14.24
2023-04-16T19:03:38.846Z,14.29
2023-04-16T19:06:06.346Z,14.44
2023-04-16T19:08:33.621Z,14.28
2023-04-16T19:11:00.844Z,14.32
2023-04-16T19:13:30.260Z,14.24
2023-04-16T19:15:59.427Z,14.27
2023-04-16T19:18:26.766Z,14.15
2023-04-16T19:21:00.597Z,14.06
2023-04-16T19:23:27.916Z,13.99
2023-04-16T19:25:56.767Z,13.99
2023-04-16T19:28:24.144Z,14.14
2023-04-16T19:30:51.529Z,14.17
2023-04-16T19:33:19.005Z,14.10
2023-04-16T19:35:46.353Z,14.03
2023-04-16T19:38:13.458Z,13.93
2023-04-16T19:40:41.109Z,13.96
2023-04-16T19:43:08.442Z,14.00
2023-04-16T19:45:35.605Z,14.00
2023-04-16T19:48:02.748Z,13.90
2023-04-16T19:50:30.013Z,13.84
2023-04-16T19:52:57.145Z,13.92
2023-04-16T19:55:24.228Z,13.81
2023-04-16T19:57:51.303Z,13.85
2023-04-16T20:00:18.483Z,13.90
2023-04-16T20:02:45.955Z,13.85
2023-04-16T20:05:13.094Z,13.83
2023-04-16T20:07:40.211Z,13.78
2023-04-16T20:10:07.496Z,13.74
2023-04-16T20:12:34.541Z,13.66
2023-04-16T20:15:01.619Z,13.63
2023-04-16T20:17:28.978Z,13.63
2023-04-16T20:20:00.817Z,13.59
2023-04-16T20:22:28.005Z,13.59
2023-04-16T20:24:55.156Z,13.54
2023-04-16T20:27:22.266Z,13.62
2023-04-16T20:29:49.360Z,13.57
2023-04-16T20:32:16.734Z,13.55
2023-04-16T20:34:43.834Z,13.57
2023-04-16T20:37:10.890Z,13.58
2023-04-16T20:39:40.011Z,13.51
2023-04-16T20:42:10.180Z,13.43
2023-04-16T20:44:40.645Z,13.43
2023-04-16T20:47:08.580Z,13.30
2023-04-16T20:49:35.722Z,13.25
2023-04-16T20:52:02.781Z,13.23
2023-04-16T20:54:30.058Z,13.27
2023-04-16T20:56:57.493Z,13.13
2023-04-16T20:59:24.832Z,13.25
2023-04-16T21:01:55.115Z,13.21
2023-04-16T21:04:22.423Z,13.11
2023-04-16T21:06:53.361Z,13.09
2023-04-16T21:09:20.821Z,13.18
2023-04-16T21:11:48.044Z,13.18
2023-04-16T21:14:15.431Z,13.07
2023-04-16T21:16:42.572Z,13.06
2023-04-16T21:19:09.995Z,13.07
2023-04-16T21:21:38.301Z,13.08
2023-04-16T21:24:05.554Z,12.91
2023-04-16T21:26:32.608Z,12.88
2023-04-16T21:28:59.794Z,12.84
2023-04-16T21:31:27.320Z,12.75
2023-04-16T21:33:54.428Z,12.82
2023-04-16T21:36:21.498Z,12.68
2023-04-16T21:38:48.690Z,12.70
2023-04-16T21:41:16.546Z,12.68
2023-04-16T21:43:43.602Z,12.47
2023-04-16T21:46:10.859Z,12.45
2023-04-16T21:48:37.966Z,12.43
2023-04-16T21:51:08.249Z,12.44
2023-04-16T21:53:36.854Z,12.34
2023-04-16T21:56:03.998Z,12.29
2023-04-16T21:58:31.070Z,12.27
2023-04-16T22:00:58.123Z,12.43
2023-04-16T22:03:26.670Z,12.31
2023-04-16T22:05:57.928Z,12.23
2023-04-16T22:08:27.118Z,12.18
2023-04-16T22:10:58.820Z,12.21
2023-04-16T22:13:26.280Z,12.23
2023-04-16T22:15:54.589Z,12.24
2023-04-16T22:18:24.267Z,12.24
2023-04-16T22:20:54.661Z,12.24
2023-04-16T22:23:22.193Z,12.26
2023-04-16T22:25:49.362Z,12.12
2023-04-16T22:28:16.467Z,12.08
2023-04-16T22:30:43.517Z,12.09
2023-04-16T22:33:11.236Z,12.00
2023-04-16T22:35:38.391Z,11.93
2023-04-16T22:38:05.680Z,12.08
2023-04-16T22:40:32.784Z,12.12
2023-04-16T22:42:59.862Z,12.00
2023-04-16T22:45:27.338Z,11.81
2023-04-16T22:47:54.495Z,11.84
2023-04-16T22:50:23.180Z,11.88
2023-04-16T22:52:50.644Z,11.94
2023-04-16T22:55:17.778Z,11.84
2023-04-16T22:57:44.899Z,11.80
2023-04-16T23:00:16.024Z,11.83
2023-04-16T23:02:44.991Z,11.85
2023-04-16T23:05:12.267Z,11.83
2023-04-16T23:07:39.448Z,11.68
2023-04-16T23:10:08.355Z,11.75
2023-04-16T23:12:38.876Z,11.60
2023-04-16T23:15:06.645Z,11.58
2023-04-16T23:17:34.975Z,11.50
2023-04-16T23:20:02.401Z,11.53
2023-04-16T23:22:29.576Z,11.53
2023-04-16T23:24:56.962Z,11.61
2023-04-16T23:27:24.062Z,11.54
2023-04-16T23:29:51.090Z,11.47
2023-04-16T23:32:18.183Z,11.55
2023-04-16T23:34:45.565Z,11.37
2023-04-16T23:37:12.680Z,11.25
2023-04-16T23:39:39.979Z,11.30
2023-04-16T23:42:07.205Z,11.39
2023-04-16T23:44:34.238Z,11.38
2023-04-16T23:47:01.409Z,11.32
2023-04-16T23:49:28.584Z,11.14
2023-04-16T23:51:55.731Z,10.98
2023-04-16T23:54:22.847Z,11.13
2023-04-16T23:56:49.943Z,11.08
2023-04-16T23:59:17.089Z,11.23
